sensor_id;sensor_type;location;lat;lon;timestamp;P1;durP1;ratioP1;P2;durP2;ratioP2
78410;SDS011;67706;51.074;-1.796;2023-08-21T00:02:33;4.95;;;1.80;;
78410;SDS011;67706;51.074;-1.796;2023-08-21T00:07:25;9.68;;;1.60;;
78410;SDS011;67706;51.074;-1.796;2023-08-21T00:09:51;3.88;;;1.67;;
78410;SDS011;67706;51.074;-1.796;2023-08-21T00:14:43;4.80;;;1.60;;
78410;SDS011;67706;51.074;-1.796;2023-08-21T00:17:09;5.47;;;1.65;;
78410;SDS011;67706;51.074;-1.796;2023-08-21T00:22:01;6.43;;;1.90;;
78410;SDS011;67706;51.074;-1.796;2023-08-21T00:24:28;6.32;;;2.05;;
78410;SDS011;67706;51.074;-1.796;2023-08-21T00:26:54;5.07;;;1.80;;
78410;SDS011;67706;51.074;-1.796;2023-08-21T00:31:46;3.13;;;1.52;;
78410;SDS011;67706;51.074;-1.796;2023-08-21T00:34:12;7.55;;;2.03;;
78410;SDS011;67706;51.074;-1.796;2023-08-21T00:36:38;6.25;;;1.75;;
78410;SDS011;67706;51.074;-1.796;2023-08-21T00:39:04;9.13;;;2.28;;
78410;SDS011;67706;51.074;-1.796;2023-08-21T00:41:32;6.03;;;1.80;;
78410;SDS011;67706;51.074;-1.796;2023-08-21T00:43:59;5.00;;;1.73;;
78410;SDS011;67706;51.074;-1.796;2023-08-21T00:46:25;8.80;;;1.85;;
78410;SDS011;67706;51.074;-1.796;2023-08-21T00:48:51;5.10;;;2.20;;
78410;SDS011;67706;51.074;-1.796;2023-08-21T00:51:18;6.88;;;2.10;;
78410;SDS011;67706;51.074;-1.796;2023-08-21T00:53:45;7.57;;;1.65;;
78410;SDS011;67706;51.074;-1.796;2023-08-21T00:56:11;3.28;;;1.42;;
78410;SDS011;67706;51.074;-1.796;2023-08-21T00:58:39;11.50;;;1.90;;
78410;SDS011;67706;51.074;-1.796;2023-08-21T01:01:06;12.30;;;2.88;;
78410;SDS011;67706;51.074;-1.796;2023-08-21T01:03:32;5.13;;;2.15;;
78410;SDS011;67706;51.074;-1.796;2023-08-21T01:05:58;9.15;;;1.88;;
78410;SDS011;67706;51.074;-1.796;2023-08-21T01:08:25;8.15;;;1.90;;
78410;SDS011;67706;51.074;-1.796;2023-08-21T01:11:03;9.15;;;2.20;;
78410;SDS011;67706;51.074;-1.796;2023-08-21T01:13:38;9.00;;;2.13;;
78410;SDS011;67706;51.074;-1.796;2023-08-21T01:16:13;7.95;;;2.00;;
78410;SDS011;67706;51.074;-1.796;2023-08-21T01:18:40;4.47;;;1.80;;
78410;SDS011;67706;51.074;-1.796;2023-08-21T01:21:08;7.35;;;2.20;;
78410;SDS011;67706;51.074;-1.796;2023-08-21T01:26:00;8.20;;;1.98;;
78410;SDS011;67706;51.074;-1.796;2023-08-21T01:28:27;6.80;;;2.03;;
78410;SDS011;67706;51.074;-1.796;2023-08-21T01:30:55;5.90;;;2.08;;
78410;SDS011;67706;51.074;-1.796;2023-08-21T01:33:29;5.10;;;2.10;;
78410;SDS011;67706;51.074;-1.796;2023-08-21T01:35:58;9.35;;;2.75;;
78410;SDS011;67706;51.074;-1.796;2023-08-21T01:38:29;7.93;;;2.40;;
78410;SDS011;67706;51.074;-1.796;2023-08-21T01:40:56;8.98;;;2.63;;
78410;SDS011;67706;51.074;-1.796;2023-08-21T01:43:22;8.57;;;2.20;;
78410;SDS011;67706;51.074;-1.796;2023-08-21T01:48:13;7.47;;;2.13;;
78410;SDS011;67706;51.074;-1.796;2023-08-21T01:50:39;6.72;;;2.30;;
78410;SDS011;67706;51.074;-1.796;2023-08-21T01:53:05;7.38;;;2.63;;
78410;SDS011;67706;51.074;-1.796;2023-08-21T01:55:31;9.18;;;3.15;;
78410;SDS011;67706;51.074;-1.796;2023-08-21T01:57:58;10.60;;;3.15;;
78410;SDS011;67706;51.074;-1.796;2023-08-21T02:00:24;10.02;;;2.42;;
78410;SDS011;67706;51.074;-1.796;2023-08-21T02:05:16;9.88;;;2.85;;
78410;SDS011;67706;51.074;-1.796;2023-08-21T02:10:08;8.63;;;2.47;;
78410;SDS011;67706;51.074;-1.796;2023-08-21T02:12:34;9.13;;;2.78;;
78410;SDS011;67706;51.074;-1.796;2023-08-21T02:15:01;5.60;;;2.58;;
78410;SDS011;67706;51.074;-1.796;2023-08-21T02:17:27;7.22;;;2.58;;
78410;SDS011;67706;51.074;-1.796;2023-08-21T02:19:53;11.02;;;2.78;;
78410;SDS011;67706;51.074;-1.796;2023-08-21T02:24:45;7.35;;;2.78;;
78410;SDS011;67706;51.074;-1.796;2023-08-21T02:27:11;8.45;;;3.50;;
78410;SDS011;67706;51.074;-1.796;2023-08-21T02:29:37;9.82;;;2.47;;
78410;SDS011;67706;51.074;-1.796;2023-08-21T02:32:04;9.25;;;2.72;;
78410;SDS011;67706;51.074;-1.796;2023-08-21T02:34:30;9.55;;;2.58;;
78410;SDS011;67706;51.074;-1.796;2023-08-21T02:36:56;10.30;;;3.08;;
78410;SDS011;67706;51.074;-1.796;2023-08-21T02:39:23;9.07;;;2.38;;
78410;SDS011;67706;51.074;-1.796;2023-08-21T02:44:15;6.28;;;2.15;;
78410;SDS011;67706;51.074;-1.796;2023-08-21T02:46:41;7.90;;;2.60;;
78410;SDS011;67706;51.074;-1.796;2023-08-21T02:51:33;7.30;;;2.50;;
78410;SDS011;67706;51.074;-1.796;2023-08-21T02:53:59;6.28;;;2.90;;
78410;SDS011;67706;51.074;-1.796;2023-08-21T02:56:25;6.85;;;2.50;;
78410;SDS011;67706;51.074;-1.796;2023-08-21T03:01:17;8.07;;;2.50;;
78410;SDS011;67706;51.074;-1.796;2023-08-21T03:03:43;6.75;;;2.30;;
78410;SDS011;67706;51.074;-1.796;2023-08-21T03:06:10;6.15;;;2.30;;
78410;SDS011;67706;51.074;-1.796;2023-08-21T03:08:36;6.18;;;2.40;;
78410;SDS011;67706;51.074;-1.796;2023-08-21T03:11:02;8.43;;;2.35;;
78410;SDS011;67706;51.074;-1.796;2023-08-21T03:13:28;7.22;;;2.50;;
78410;SDS011;67706;51.074;-1.796;2023-08-21T03:15:54;6.57;;;2.33;;
78410;SDS011;67706;51.074;-1.796;2023-08-21T03:18:20;9.30;;;2.40;;
78410;SDS011;67706;51.074;-1.796;2023-08-21T03:20:46;6.25;;;2.33;;
78410;SDS011;67706;51.074;-1.796;2023-08-21T03:23:13;8.55;;;2.10;;
78410;SDS011;67706;51.074;-1.796;2023-08-21T03:25:39;8.02;;;2.22;;
78410;SDS011;67706;51.074;-1.796;2023-08-21T03:30:31;7.78;;;2.40;;
78410;SDS011;67706;51.074;-1.796;2023-08-21T03:35:23;5.75;;;2.03;;
78410;SDS011;67706;51.074;-1.796;2023-08-21T03:40:15;7.00;;;1.80;;
78410;SDS011;67706;51.074;-1.796;2023-08-21T03:42:41;5.75;;;2.10;;
78410;SDS011;67706;51.074;-1.796;2023-08-21T03:45:08;6.90;;;2.10;;
78410;SDS011;67706;51.074;-1.796;2023-08-21T03:50:00;4.63;;;1.92;;
78410;SDS011;67706;51.074;-1.796;2023-08-21T03:54:52;6.78;;;2.50;;
78410;SDS011;67706;51.074;-1.796;2023-08-21T03:59:44;7.45;;;2.63;;
78410;SDS011;67706;51.074;-1.796;2023-08-21T04:02:10;5.93;;;2.17;;
78410;SDS011;67706;51.074;-1.796;2023-08-21T04:04:36;4.53;;;2.40;;
78410;SDS011;67706;51.074;-1.796;2023-08-21T04:07:02;7.78;;;2.45;;
78410;SDS011;67706;51.074;-1.796;2023-08-21T04:09:28;6.57;;;2.55;;
78410;SDS011;67706;51.074;-1.796;2023-08-21T04:14:21;4.15;;;2.10;;
78410;SDS011;67706;51.074;-1.796;2023-08-21T04:16:47;5.97;;;2.40;;
78410;SDS011;67706;51.074;-1.796;2023-08-21T04:19:13;8.20;;;2.60;;
78410;SDS011;67706;51.074;-1.796;2023-08-21T04:21:39;7.60;;;2.50;;
78410;SDS011;67706;51.074;-1.796;2023-08-21T04:24:05;7.07;;;2.08;;
78410;SDS011;67706;51.074;-1.796;2023-08-21T04:26:32;5.25;;;2.55;;
78410;SDS011;67706;51.074;-1.796;2023-08-21T04:28:58;3.50;;;2.10;;
78410;SDS011;67706;51.074;-1.796;2023-08-21T04:31:25;7.22;;;2.20;;
78410;SDS011;67706;51.074;-1.796;2023-08-21T04:33:51;5.97;;;1.90;;
78410;SDS011;67706;51.074;-1.796;2023-08-21T04:38:43;6.03;;;1.80;;
78410;SDS011;67706;51.074;-1.796;2023-08-21T04:43:35;5.70;;;1.95;;
78410;SDS011;67706;51.074;-1.796;2023-08-21T04:46:01;7.03;;;1.90;;
78410;SDS011;67706;51.074;-1.796;2023-08-21T04:48:30;8.25;;;2.33;;
78410;SDS011;67706;51.074;-1.796;2023-08-21T04:50:56;7.13;;;1.70;;
78410;SDS011;67706;51.074;-1.796;2023-08-21T04:53:21;3.35;;;1.45;;
78410;SDS011;67706;51.074;-1.796;2023-08-21T04:55:47;7.25;;;1.55;;
78410;SDS011;67706;51.074;-1.796;2023-08-21T04:58:13;4.40;;;1.80;;
78410;SDS011;67706;51.074;-1.796;2023-08-21T05:00:40;4.10;;;1.83;;
78410;SDS011;67706;51.074;-1.796;2023-08-21T05:03:06;4.18;;;1.65;;
78410;SDS011;67706;51.074;-1.796;2023-08-21T05:05:34;6.97;;;1.55;;
78410;SDS011;67706;51.074;-1.796;2023-08-21T05:08:00;5.25;;;1.65;;
78410;SDS011;67706;51.074;-1.796;2023-08-21T05:12:52;8.82;;;1.45;;
78410;SDS011;67706;51.074;-1.796;2023-08-21T05:15:18;5.70;;;1.52;;
78410;SDS011;67706;51.074;-1.796;2023-08-21T05:17:44;5.05;;;1.42;;
78410;SDS011;67706;51.074;-1.796;2023-08-21T05:20:10;5.70;;;1.50;;
78410;SDS011;67706;51.074;-1.796;2023-08-21T05:22:40;5.25;;;1.42;;
78410;SDS011;67706;51.074;-1.796;2023-08-21T05:25:07;3.97;;;1.42;;
78410;SDS011;67706;51.074;-1.796;2023-08-21T05:27:33;6.45;;;1.73;;
78410;SDS011;67706;51.074;-1.796;2023-08-21T05:29:59;8.30;;;1.70;;
78410;SDS011;67706;51.074;-1.796;2023-08-21T05:32:25;9.10;;;1.58;;
78410;SDS011;67706;51.074;-1.796;2023-08-21T05:34:51;5.05;;;1.33;;
78410;SDS011;67706;51.074;-1.796;2023-08-21T05:37:17;5.20;;;1.80;;
78410;SDS011;67706;51.074;-1.796;2023-08-21T05:39:44;5.00;;;1.50;;
78410;SDS011;67706;51.074;-1.796;2023-08-21T05:42:10;4.38;;;1.50;;
78410;SDS011;67706;51.074;-1.796;2023-08-21T05:44:36;4.00;;;1.67;;
78410;SDS011;67706;51.074;-1.796;2023-08-21T05:47:02;7.07;;;1.70;;
78410;SDS011;67706;51.074;-1.796;2023-08-21T05:49:28;3.72;;;1.50;;
78410;SDS011;67706;51.074;-1.796;2023-08-21T05:51:55;5.15;;;1.70;;
78410;SDS011;67706;51.074;-1.796;2023-08-21T05:54:24;4.20;;;1.70;;
78410;SDS011;67706;51.074;-1.796;2023-08-21T05:56:51;6.35;;;1.75;;
78410;SDS011;67706;51.074;-1.796;2023-08-21T05:59:25;4.88;;;1.70;;
78410;SDS011;67706;51.074;-1.796;2023-08-21T06:01:53;5.43;;;1.63;;
78410;SDS011;67706;51.074;-1.796;2023-08-21T06:04:19;5.47;;;1.80;;
78410;SDS011;67706;51.074;-1.796;2023-08-21T06:09:11;5.00;;;1.35;;
78410;SDS011;67706;51.074;-1.796;2023-08-21T06:11:37;5.18;;;1.48;;
78410;SDS011;67706;51.074;-1.796;2023-08-21T06:14:04;2.80;;;1.48;;
78410;SDS011;67706;51.074;-1.796;2023-08-21T06:16:30;4.65;;;1.60;;
78410;SDS011;67706;51.074;-1.796;2023-08-21T06:21:22;6.68;;;1.92;;
78410;SDS011;67706;51.074;-1.796;2023-08-21T06:23:48;6.65;;;3.08;;
78410;SDS011;67706;51.074;-1.796;2023-08-21T06:28:40;5.88;;;1.98;;
78410;SDS011;67706;51.074;-1.796;2023-08-21T06:33:34;4.38;;;1.20;;
78410;SDS011;67706;51.074;-1.796;2023-08-21T06:38:25;3.35;;;1.17;;
78410;SDS011;67706;51.074;-1.796;2023-08-21T06:40:51;4.55;;;1.30;;
78410;SDS011;67706;51.074;-1.796;2023-08-21T06:45:43;4.88;;;1.90;;
78410;SDS011;67706;51.074;-1.796;2023-08-21T06:50:36;3.20;;;1.20;;
78410;SDS011;67706;51.074;-1.796;2023-08-21T06:53:03;4.65;;;1.23;;
78410;SDS011;67706;51.074;-1.796;2023-08-21T06:57:54;2.85;;;1.40;;
78410;SDS011;67706;51.074;-1.796;2023-08-21T07:00:20;4.65;;;1.65;;
78410;SDS011;67706;51.074;-1.796;2023-08-21T07:02:47;5.35;;;1.15;;
78410;SDS011;67706;51.074;-1.796;2023-08-21T07:05:14;5.72;;;1.58;;
78410;SDS011;67706;51.074;-1.796;2023-08-21T07:07:41;6.65;;;1.10;;
78410;SDS011;67706;51.074;-1.796;2023-08-21T07:10:22;5.25;;;1.83;;
78410;SDS011;67706;51.074;-1.796;2023-08-21T07:12:51;1.48;;;1.00;;
78410;SDS011;67706;51.074;-1.796;2023-08-21T07:15:20;4.03;;;1.02;;
78410;SDS011;67706;51.074;-1.796;2023-08-21T07:17:47;4.63;;;1.55;;
78410;SDS011;67706;51.074;-1.796;2023-08-21T07:20:21;8.48;;;2.40;;
78410;SDS011;67706;51.074;-1.796;2023-08-21T07:22:48;7.15;;;1.88;;
78410;SDS011;67706;51.074;-1.796;2023-08-21T07:25:16;8.80;;;4.85;;
78410;SDS011;67706;51.074;-1.796;2023-08-21T07:27:43;7.68;;;2.03;;
78410;SDS011;67706;51.074;-1.796;2023-08-21T07:36:02;4.15;;;1.60;;
78410;SDS011;67706;51.074;-1.796;2023-08-21T07:39:09;3.63;;;1.00;;
78410;SDS011;67706;51.074;-1.796;2023-08-21T07:41:59;3.78;;;1.10;;
78410;SDS011;67706;51.074;-1.796;2023-08-21T07:44:44;3.63;;;1.38;;
78410;SDS011;67706;51.074;-1.796;2023-08-21T07:47:11;1.80;;;0.80;;
78410;SDS011;67706;51.074;-1.796;2023-08-21T07:49:40;2.83;;;1.10;;
78410;SDS011;67706;51.074;-1.796;2023-08-21T07:52:17;3.45;;;1.00;;
78410;SDS011;67706;51.074;-1.796;2023-08-21T07:54:44;5.03;;;1.00;;
78410;SDS011;67706;51.074;-1.796;2023-08-21T07:57:11;5.32;;;1.15;;
78410;SDS011;67706;51.074;-1.796;2023-08-21T07:59:40;1.52;;;0.80;;
78410;SDS011;67706;51.074;-1.796;2023-08-21T08:02:07;4.85;;;1.00;;
78410;SDS011;67706;51.074;-1.796;2023-08-21T08:04:34;2.15;;;0.73;;
78410;SDS011;67706;51.074;-1.796;2023-08-21T08:07:00;6.72;;;0.80;;
78410;SDS011;67706;51.074;-1.796;2023-08-21T08:09:28;5.90;;;1.00;;
78410;SDS011;67706;51.074;-1.796;2023-08-21T08:11:54;3.55;;;0.88;;
78410;SDS011;67706;51.074;-1.796;2023-08-21T08:14:20;3.17;;;0.63;;
78410;SDS011;67706;51.074;-1.796;2023-08-21T08:16:47;3.70;;;0.85;;
78410;SDS011;67706;51.074;-1.796;2023-08-21T08:19:13;2.42;;;0.88;;
78410;SDS011;67706;51.074;-1.796;2023-08-21T08:21:40;4.07;;;0.98;;
78410;SDS011;67706;51.074;-1.796;2023-08-21T08:24:06;2.60;;;1.05;;
78410;SDS011;67706;51.074;-1.796;2023-08-21T08:26:33;1.55;;;0.82;;
78410;SDS011;67706;51.074;-1.796;2023-08-21T08:29:03;3.40;;;1.10;;
78410;SDS011;67706;51.074;-1.796;2023-08-21T08:31:30;3.63;;;1.10;;
78410;SDS011;67706;51.074;-1.796;2023-08-21T08:33:56;5.03;;;1.00;;
78410;SDS011;67706;51.074;-1.796;2023-08-21T08:36:23;4.38;;;1.05;;
78410;SDS011;67706;51.074;-1.796;2023-08-21T08:38:49;5.63;;;1.00;;
78410;SDS011;67706;51.074;-1.796;2023-08-21T08:41:18;2.28;;;1.00;;
78410;SDS011;67706;51.074;-1.796;2023-08-21T08:44:00;1.95;;;1.00;;
78410;SDS011;67706;51.074;-1.796;2023-08-21T08:46:27;1.70;;;0.95;;
78410;SDS011;67706;51.074;-1.796;2023-08-21T08:48:55;2.50;;;0.98;;
78410;SDS011;67706;51.074;-1.796;2023-08-21T08:51:22;5.55;;;1.00;;
78410;SDS011;67706;51.074;-1.796;2023-08-21T08:53:50;3.03;;;0.80;;
78410;SDS011;67706;51.074;-1.796;2023-08-21T08:56:16;4.13;;;1.10;;
78410;SDS011;67706;51.074;-1.796;2023-08-21T08:58:43;2.80;;;0.77;;
78410;SDS011;67706;51.074;-1.796;2023-08-21T09:01:10;2.10;;;0.90;;
78410;SDS011;67706;51.074;-1.796;2023-08-21T09:03:36;5.15;;;0.90;;
78410;SDS011;67706;51.074;-1.796;2023-08-21T09:06:03;4.47;;;1.10;;
78410;SDS011;67706;51.074;-1.796;2023-08-21T09:08:29;4.30;;;1.40;;
78410;SDS011;67706;51.074;-1.796;2023-08-21T09:10:56;2.65;;;0.98;;
78410;SDS011;67706;51.074;-1.796;2023-08-21T09:13:27;3.75;;;1.00;;
78410;SDS011;67706;51.074;-1.796;2023-08-21T09:15:57;4.00;;;1.20;;
78410;SDS011;67706;51.074;-1.796;2023-08-21T09:18:25;2.22;;;0.85;;
78410;SDS011;67706;51.074;-1.796;2023-08-21T09:20:52;3.20;;;1.20;;
78410;SDS011;67706;51.074;-1.796;2023-08-21T09:23:18;1.92;;;0.80;;
78410;SDS011;67706;51.074;-1.796;2023-08-21T09:25:45;2.45;;;0.88;;
78410;SDS011;67706;51.074;-1.796;2023-08-21T09:28:13;2.58;;;0.95;;
78410;SDS011;67706;51.074;-1.796;2023-08-21T09:30:43;3.45;;;1.10;;
78410;SDS011;67706;51.074;-1.796;2023-08-21T09:33:10;2.25;;;0.80;;
78410;SDS011;67706;51.074;-1.796;2023-08-21T09:35:40;2.60;;;0.80;;
78410;SDS011;67706;51.074;-1.796;2023-08-21T09:38:18;3.70;;;1.00;;
78410;SDS011;67706;51.074;-1.796;2023-08-21T09:40:49;4.57;;;1.17;;
78410;SDS011;67706;51.074;-1.796;2023-08-21T09:43:16;4.65;;;0.82;;
78410;SDS011;67706;51.074;-1.796;2023-08-21T09:45:45;1.52;;;0.70;;
78410;SDS011;67706;51.074;-1.796;2023-08-21T09:48:12;2.45;;;0.73;;
78410;SDS011;67706;51.074;-1.796;2023-08-21T09:50:40;2.30;;;0.68;;
78410;SDS011;67706;51.074;-1.796;2023-08-21T09:53:08;2.83;;;1.08;;
78410;SDS011;67706;51.074;-1.796;2023-08-21T09:55:38;8.15;;;1.00;;
78410;SDS011;67706;51.074;-1.796;2023-08-21T09:58:05;1.70;;;0.65;;
78410;SDS011;67706;51.074;-1.796;2023-08-21T10:00:40;3.95;;;0.85;;
78410;SDS011;67706;51.074;-1.796;2023-08-21T10:06:02;4.20;;;1.08;;
78410;SDS011;67706;51.074;-1.796;2023-08-21T10:08:29;2.70;;;1.05;;
78410;SDS011;67706;51.074;-1.796;2023-08-21T10:10:57;2.40;;;0.90;;
78410;SDS011;67706;51.074;-1.796;2023-08-21T10:13:25;3.13;;;1.00;;
78410;SDS011;67706;51.074;-1.796;2023-08-21T10:15:55;3.50;;;1.08;;
78410;SDS011;67706;51.074;-1.796;2023-08-21T10:18:29;4.57;;;0.95;;
78410;SDS011;67706;51.074;-1.796;2023-08-21T10:20:56;3.90;;;1.15;;
78410;SDS011;67706;51.074;-1.796;2023-08-21T10:23:37;5.18;;;1.17;;
78410;SDS011;67706;51.074;-1.796;2023-08-21T10:26:09;2.53;;;0.80;;
78410;SDS011;67706;51.074;-1.796;2023-08-21T10:28:43;1.63;;;0.90;;
78410;SDS011;67706;51.074;-1.796;2023-08-21T10:31:26;4.95;;;1.05;;
78410;SDS011;67706;51.074;-1.796;2023-08-21T10:33:57;2.75;;;1.00;;
78410;SDS011;67706;51.074;-1.796;2023-08-21T10:36:40;6.15;;;0.93;;
78410;SDS011;67706;51.074;-1.796;2023-08-21T10:39:53;1.95;;;0.80;;
78410;SDS011;67706;51.074;-1.796;2023-08-21T10:45:22;2.42;;;1.02;;
78410;SDS011;67706;51.074;-1.796;2023-08-21T10:47:49;2.53;;;1.02;;
78410;SDS011;67706;51.074;-1.796;2023-08-21T10:50:15;4.47;;;0.93;;
78410;SDS011;67706;51.074;-1.796;2023-08-21T10:52:43;4.53;;;1.30;;
78410;SDS011;67706;51.074;-1.796;2023-08-21T10:55:13;3.10;;;0.95;;
78410;SDS011;67706;51.074;-1.796;2023-08-21T10:57:41;1.52;;;0.90;;
78410;SDS011;67706;51.074;-1.796;2023-08-21T11:00:09;3.75;;;1.13;;
78410;SDS011;67706;51.074;-1.796;2023-08-21T11:02:42;2.30;;;0.60;;
78410;SDS011;67706;51.074;-1.796;2023-08-21T11:05:11;3.08;;;0.95;;
78410;SDS011;67706;51.074;-1.796;2023-08-21T11:07:39;3.03;;;0.80;;
78410;SDS011;67706;51.074;-1.796;2023-08-21T11:10:11;2.90;;;1.00;;
78410;SDS011;67706;51.074;-1.796;2023-08-21T11:12:47;2.00;;;0.88;;
78410;SDS011;67706;51.074;-1.796;2023-08-21T11:15:18;6.75;;;0.82;;
78410;SDS011;67706;51.074;-1.796;2023-08-21T11:17:53;2.78;;;1.00;;
78410;SDS011;67706;51.074;-1.796;2023-08-21T11:20:19;3.40;;;0.90;;
78410;SDS011;67706;51.074;-1.796;2023-08-21T11:22:46;2.45;;;0.90;;
78410;SDS011;67706;51.074;-1.796;2023-08-21T11:27:58;2.38;;;1.20;;
78410;SDS011;67706;51.074;-1.796;2023-08-21T11:30:24;3.17;;;1.10;;
78410;SDS011;67706;51.074;-1.796;2023-08-21T11:33:04;2.13;;;0.85;;
78410;SDS011;67706;51.074;-1.796;2023-08-21T11:35:31;5.22;;;1.00;;
78410;SDS011;67706;51.074;-1.796;2023-08-21T11:37:57;4.25;;;1.30;;
78410;SDS011;67706;51.074;-1.796;2023-08-21T11:40:24;1.40;;;0.82;;
78410;SDS011;67706;51.074;-1.796;2023-08-21T11:42:52;4.88;;;1.13;;
78410;SDS011;67706;51.074;-1.796;2023-08-21T11:45:20;2.33;;;1.00;;
78410;SDS011;67706;51.074;-1.796;2023-08-21T11:47:46;4.95;;;1.33;;
78410;SDS011;67706;51.074;-1.796;2023-08-21T11:50:14;5.88;;;1.00;;
78410;SDS011;67706;51.074;-1.796;2023-08-21T11:52:45;1.95;;;0.80;;
78410;SDS011;67706;51.074;-1.796;2023-08-21T11:55:11;3.80;;;1.10;;
78410;SDS011;67706;51.074;-1.796;2023-08-21T11:57:47;2.50;;;0.85;;
78410;SDS011;67706;51.074;-1.796;2023-08-21T12:00:15;3.80;;;0.80;;
78410;SDS011;67706;51.074;-1.796;2023-08-21T12:02:48;2.78;;;0.90;;
78410;SDS011;67706;51.074;-1.796;2023-08-21T12:05:19;4.30;;;1.10;;
78410;SDS011;67706;51.074;-1.796;2023-08-21T12:07:46;1.65;;;0.95;;
78410;SDS011;67706;51.074;-1.796;2023-08-21T12:10:12;1.90;;;0.80;;
78410;SDS011;67706;51.074;-1.796;2023-08-21T12:12:41;6.35;;;1.50;;
78410;SDS011;67706;51.074;-1.796;2023-08-21T12:15:07;2.42;;;1.33;;
78410;SDS011;67706;51.074;-1.796;2023-08-21T12:17:36;1.92;;;0.82;;
78410;SDS011;67706;51.074;-1.796;2023-08-21T12:20:02;3.72;;;1.08;;
78410;SDS011;67706;51.074;-1.796;2023-08-21T12:22:35;3.40;;;1.20;;
78410;SDS011;67706;51.074;-1.796;2023-08-21T12:25:02;2.83;;;1.15;;
78410;SDS011;67706;51.074;-1.796;2023-08-21T12:27:29;1.77;;;0.90;;
78410;SDS011;67706;51.074;-1.796;2023-08-21T12:29:56;2.60;;;1.10;;
78410;SDS011;67706;51.074;-1.796;2023-08-21T12:32:22;3.17;;;1.02;;
78410;SDS011;67706;51.074;-1.796;2023-08-21T12:34:48;2.38;;;1.08;;
78410;SDS011;67706;51.074;-1.796;2023-08-21T12:37:14;1.67;;;0.80;;
78410;SDS011;67706;51.074;-1.796;2023-08-21T12:39:40;1.52;;;0.80;;
78410;SDS011;67706;51.074;-1.796;2023-08-21T12:42:06;2.95;;;0.80;;
78410;SDS011;67706;51.074;-1.796;2023-08-21T12:44:33;2.30;;;1.05;;
78410;SDS011;67706;51.074;-1.796;2023-08-21T12:46:59;1.88;;;0.70;;
78410;SDS011;67706;51.074;-1.796;2023-08-21T12:49:25;3.38;;;1.02;;
78410;SDS011;67706;51.074;-1.796;2023-08-21T12:51:52;3.50;;;0.93;;
78410;SDS011;67706;51.074;-1.796;2023-08-21T12:54:18;2.78;;;0.85;;
78410;SDS011;67706;51.074;-1.796;2023-08-21T12:56:44;5.10;;;0.90;;
78410;SDS011;67706;51.074;-1.796;2023-08-21T12:59:10;1.67;;;0.85;;
78410;SDS011;67706;51.074;-1.796;2023-08-21T13:01:36;3.95;;;1.02;;
78410;SDS011;67706;51.074;-1.796;2023-08-21T13:04:03;2.22;;;0.77;;
78410;SDS011;67706;51.074;-1.796;2023-08-21T13:06:29;1.02;;;0.70;;
78410;SDS011;67706;51.074;-1.796;2023-08-21T13:08:56;5.05;;;0.90;;
78410;SDS011;67706;51.074;-1.796;2023-08-21T13:11:22;2.50;;;1.10;;
78410;SDS011;67706;51.074;-1.796;2023-08-21T13:13:48;1.75;;;0.82;;
78410;SDS011;67706;51.074;-1.796;2023-08-21T13:16:14;2.85;;;0.68;;
78410;SDS011;67706;51.074;-1.796;2023-08-21T13:18:40;3.83;;;1.55;;
78410;SDS011;67706;51.074;-1.796;2023-08-21T13:21:06;2.38;;;0.90;;
78410;SDS011;67706;51.074;-1.796;2023-08-21T13:23:33;2.40;;;0.70;;
78410;SDS011;67706;51.074;-1.796;2023-08-21T13:26:00;1.63;;;0.63;;
78410;SDS011;67706;51.074;-1.796;2023-08-21T13:28:27;2.85;;;1.20;;
78410;SDS011;67706;51.074;-1.796;2023-08-21T13:30:53;2.53;;;0.57;;
78410;SDS011;67706;51.074;-1.796;2023-08-21T13:33:19;2.78;;;0.95;;
78410;SDS011;67706;51.074;-1.796;2023-08-21T13:35:45;2.33;;;0.60;;
78410;SDS011;67706;51.074;-1.796;2023-08-21T13:38:11;2.65;;;0.70;;
78410;SDS011;67706;51.074;-1.796;2023-08-21T13:40:38;1.33;;;0.40;;
78410;SDS011;67706;51.074;-1.796;2023-08-21T13:43:05;4.68;;;0.70;;
78410;SDS011;67706;51.074;-1.796;2023-08-21T13:45:32;2.97;;;0.80;;
78410;SDS011;67706;51.074;-1.796;2023-08-21T13:47:58;2.53;;;0.65;;
78410;SDS011;67706;51.074;-1.796;2023-08-21T13:50:24;4.38;;;0.60;;
78410;SDS011;67706;51.074;-1.796;2023-08-21T13:52:50;1.85;;;0.80;;
78410;SDS011;67706;51.074;-1.796;2023-08-21T13:55:16;2.58;;;0.70;;
78410;SDS011;67706;51.074;-1.796;2023-08-21T13:57:43;1.80;;;0.60;;
78410;SDS011;67706;51.074;-1.796;2023-08-21T14:00:10;1.48;;;0.50;;
78410;SDS011;67706;51.074;-1.796;2023-08-21T14:02:37;1.83;;;0.70;;
78410;SDS011;67706;51.074;-1.796;2023-08-21T14:05:04;2.08;;;0.80;;
78410;SDS011;67706;51.074;-1.796;2023-08-21T14:07:30;2.67;;;1.77;;
78410;SDS011;67706;51.074;-1.796;2023-08-21T14:09:57;3.25;;;0.85;;
78410;SDS011;67706;51.074;-1.796;2023-08-21T14:12:23;1.70;;;0.50;;
78410;SDS011;67706;51.074;-1.796;2023-08-21T14:14:49;1.95;;;0.60;;
78410;SDS011;67706;51.074;-1.796;2023-08-21T14:17:16;2.53;;;0.63;;
78410;SDS011;67706;51.074;-1.796;2023-08-21T14:19:43;1.40;;;0.60;;
78410;SDS011;67706;51.074;-1.796;2023-08-21T14:22:09;3.10;;;0.65;;
78410;SDS011;67706;51.074;-1.796;2023-08-21T14:24:37;1.85;;;0.70;;
78410;SDS011;67706;51.074;-1.796;2023-08-21T14:27:03;1.33;;;1.05;;
78410;SDS011;67706;51.074;-1.796;2023-08-21T14:29:29;3.75;;;0.70;;
78410;SDS011;67706;51.074;-1.796;2023-08-21T14:31:55;3.42;;;1.08;;
78410;SDS011;67706;51.074;-1.796;2023-08-21T14:34:23;1.85;;;0.70;;
78410;SDS011;67706;51.074;-1.796;2023-08-21T14:36:49;1.58;;;0.80;;
78410;SDS011;67706;51.074;-1.796;2023-08-21T14:39:15;1.48;;;0.90;;
78410;SDS011;67706;51.074;-1.796;2023-08-21T14:41:42;1.40;;;0.80;;
78410;SDS011;67706;51.074;-1.796;2023-08-21T14:44:08;4.00;;;1.15;;
78410;SDS011;67706;51.074;-1.796;2023-08-21T14:46:34;4.38;;;0.80;;
78410;SDS011;67706;51.074;-1.796;2023-08-21T14:49:00;2.53;;;0.77;;
78410;SDS011;67706;51.074;-1.796;2023-08-21T14:51:27;2.80;;;0.70;;
78410;SDS011;67706;51.074;-1.796;2023-08-21T14:53:53;3.38;;;0.80;;
78410;SDS011;67706;51.074;-1.796;2023-08-21T14:56:19;3.45;;;0.60;;
78410;SDS011;67706;51.074;-1.796;2023-08-21T14:58:45;1.48;;;0.43;;
78410;SDS011;67706;51.074;-1.796;2023-08-21T15:01:12;1.17;;;0.75;;
78410;SDS011;67706;51.074;-1.796;2023-08-21T15:03:38;1.88;;;0.70;;
78410;SDS011;67706;51.074;-1.796;2023-08-21T15:06:04;2.58;;;0.80;;
78410;SDS011;67706;51.074;-1.796;2023-08-21T15:08:31;0.70;;;0.60;;
78410;SDS011;67706;51.074;-1.796;2023-08-21T15:10:57;3.88;;;0.82;;
78410;SDS011;67706;51.074;-1.796;2023-08-21T15:13:23;3.85;;;0.80;;
78410;SDS011;67706;51.074;-1.796;2023-08-21T15:15:49;2.05;;;0.60;;
78410;SDS011;67706;51.074;-1.796;2023-08-21T15:18:15;1.08;;;0.55;;
78410;SDS011;67706;51.074;-1.796;2023-08-21T15:20:41;1.40;;;0.88;;
78410;SDS011;67706;51.074;-1.796;2023-08-21T15:23:07;1.33;;;0.70;;
78410;SDS011;67706;51.074;-1.796;2023-08-21T15:25:34;2.08;;;0.70;;
78410;SDS011;67706;51.074;-1.796;2023-08-21T15:28:00;1.58;;;0.68;;
78410;SDS011;67706;51.074;-1.796;2023-08-21T15:30:26;1.55;;;0.70;;
78410;SDS011;67706;51.074;-1.796;2023-08-21T15:32:52;1.55;;;0.73;;
78410;SDS011;67706;51.074;-1.796;2023-08-21T15:35:18;2.78;;;0.80;;
78410;SDS011;67706;51.074;-1.796;2023-08-21T15:37:44;2.08;;;0.70;;
78410;SDS011;67706;51.074;-1.796;2023-08-21T15:40:11;2.33;;;0.60;;
78410;SDS011;67706;51.074;-1.796;2023-08-21T15:42:37;3.17;;;0.82;;
78410;SDS011;67706;51.074;-1.796;2023-08-21T15:45:04;2.50;;;0.80;;
78410;SDS011;67706;51.074;-1.796;2023-08-21T15:47:31;4.68;;;0.98;;
78410;SDS011;67706;51.074;-1.796;2023-08-21T15:49:57;1.50;;;0.98;;
78410;SDS011;67706;51.074;-1.796;2023-08-21T15:52:23;2.00;;;0.70;;
78410;SDS011;67706;51.074;-1.796;2023-08-21T15:54:49;4.35;;;2.40;;
78410;SDS011;67706;51.074;-1.796;2023-08-21T15:57:16;3.28;;;0.82;;
78410;SDS011;67706;51.074;-1.796;2023-08-21T15:59:43;1.65;;;0.90;;
78410;SDS011;67706;51.074;-1.796;2023-08-21T16:02:09;3.60;;;0.70;;
78410;SDS011;67706;51.074;-1.796;2023-08-21T16:04:36;1.75;;;0.68;;